00AL weather

Epps Airpark
Harvest, Alabama, United States

Public forecast

Using degrees Fahrenheit for public forecast. Weather courtesy of forecast.io.

Closest aviation weather report (METAR) to Epps Airpark

Closest report is Madison County Executive Airport-Tom Sharp Jr Field, 10.5 nm (19.4 km) E. Retrieved 2020/04/08 05:15 UTC (13 minutes ago):

KMDQ 080515Z AUTO 19007KT 10SM SCT013 OVC035 17/15 A2993 RMK A02 T01750153

Closest aviation forecast (TAF) to Epps Airpark

Closest forecast is Huntsville International Carl T Jones Field, 13.7 nm (25.3 km) S. Retrieved 2020-04-08 00:22 UTC (5 hours ago):

TAF KHSV 072320Z 0800/0824 23010KT P6SM FEW060 BKN140 OVC190 TEMPO 0800/0804 4SM -SHRA OVC015 FM080400 20005KT P6SM BKN012 OVC030 FM080900 22005KT P6SM BKN007 FM081600 26006KT P6SM BKN025 FM082000 26012KT P6SM SCT050